Time;durP1;ratioP1;P1;durP2;ratioP2;P2;SDS_P1;SDS_P2;PMS_P1;PMS_P2;Temp;Humidity;BMP_temperature;BMP_pressure;BME280_temperature;BME280_humidity;BME280_pressure;Samples;Min_cycle;Max_cycle;Signal;HPM_P1;HPM_P2
2023/11/01 00:00:59;;;;;;;1.20;1.10;;;;;;;8.93;96.09;95873.01;108773;1257;22514;-78
2023/11/01 00:03:36;;;;;;;1.20;1.10;;;;;;;8.93;96.04;95883.80;108744;1267;22544;-78
2023/11/01 00:06:08;;;;;;;2.60;1.40;;;;;;;8.92;95.99;95883.97;108739;1271;27280;-78
2023/11/01 00:08:39;;;;;;;1.90;1.30;;;;;;;8.89;96.06;95884.06;108738;1271;22525;-78
2023/11/01 00:11:10;;;;;;;1.90;1.40;;;;;;;8.90;96.09;95883.85;108766;1271;22527;-78
2023/11/01 00:13:41;;;;;;;1.80;1.20;;;;;;;8.90;96.07;95886.00;108760;1271;23278;-78
2023/11/01 00:16:12;;;;;;;1.70;1.40;;;;;;;8.89;96.10;95887.81;108748;1265;23006;-78
2023/11/01 00:18:43;;;;;;;1.50;1.10;;;;;;;8.90;96.14;95892.25;108787;1271;22532;-78
2023/11/01 00:21:14;;;;;;;1.70;1.10;;;;;;;8.90;96.06;95895.14;108767;1264;22518;-78
2023/11/01 00:23:45;;;;;;;1.40;1.30;;;;;;;8.90;96.09;95895.90;108808;1271;22561;-78
2023/11/01 00:26:16;;;;;;;1.60;1.20;;;;;;;8.91;96.16;95900.85;108786;1271;22525;-78
2023/11/01 00:28:47;;;;;;;2.30;1.40;;;;;;;8.92;96.16;95903.42;108712;1269;25335;-78
2023/11/01 00:31:18;;;;;;;2.50;1.40;;;;;;;8.91;96.05;95905.23;108804;1265;22525;-78
2023/11/01 00:33:50;;;;;;;1.40;1.30;;;;;;;8.89;96.19;95912.08;108789;1271;22531;-79
2023/11/01 00:36:21;;;;;;;1.60;1.30;;;;;;;8.90;96.33;95913.77;108769;1271;22528;-78
2023/11/01 00:38:52;;;;;;;3.70;1.60;;;;;;;8.92;96.27;95918.55;108771;1271;22524;-78
2023/11/01 00:41:23;;;;;;;2.40;1.50;;;;;;;8.92;96.27;95919.44;108746;1267;22952;-78
2023/11/01 00:43:54;;;;;;;2.40;1.30;;;;;;;8.94;96.34;95923.96;108780;1271;22524;-78
2023/11/01 00:46:28;;;;;;;2.50;1.80;;;;;;;8.94;96.18;95926.39;108713;1267;23038;-78
2023/11/01 00:48:58;;;;;;;1.80;1.30;;;;;;;8.92;96.24;95930.33;108754;1271;22540;-78
2023/11/01 00:51:29;;;;;;;1.40;1.20;;;;;;;8.91;96.31;95928.34;108808;1271;22613;-78
2023/11/01 00:54:00;;;;;;;2.40;1.30;;;;;;;8.90;96.29;95927.41;108767;1271;25295;-78
2023/11/01 00:56:31;;;;;;;1.40;1.20;;;;;;;8.89;96.44;95930.95;108718;1266;22520;-78
2023/11/01 00:59:02;;;;;;;2.40;1.50;;;;;;;8.89;96.28;95931.06;108801;1270;22473;-78
2023/11/01 01:01:33;;;;;;;2.40;1.50;;;;;;;8.87;96.40;95937.21;108779;1271;22509;-78
2023/11/01 01:04:04;;;;;;;1.60;1.40;;;;;;;8.86;96.53;95928.23;108780;1264;24190;-78
2023/11/01 01:06:35;;;;;;;1.70;1.40;;;;;;;8.86;96.53;95931.83;108726;1264;22522;-78
2023/11/01 01:09:06;;;;;;;2.40;1.50;;;;;;;8.88;96.56;95934.67;108761;1270;22541;-78
2023/11/01 01:11:37;;;;;;;2.40;1.80;;;;;;;8.88;96.49;95934.78;108788;1254;24215;-78
2023/11/01 01:14:08;;;;;;;2.30;1.70;;;;;;;8.87;96.49;95936.86;108768;1271;22521;-77
2023/11/01 01:16:38;;;;;;;1.50;1.40;;;;;;;8.88;96.70;95941.75;108784;1266;22527;-78
2023/11/01 01:19:09;;;;;;;2.60;1.70;;;;;;;8.89;96.59;95939.68;108744;1264;22513;-78
2023/11/01 01:21:40;;;;;;;1.40;1.30;;;;;;;8.89;96.61;95940.21;108850;1264;22525;-78
2023/11/01 01:24:11;;;;;;;1.60;1.50;;;;;;;8.87;96.69;95936.02;108766;1271;23693;-78
2023/11/01 01:26:42;;;;;;;1.70;1.50;;;;;;;8.82;96.82;95932.46;108757;1271;22524;-78
2023/11/01 01:29:13;;;;;;;2.00;1.60;;;;;;;8.85;96.88;95943.98;108770;1271;22524;-78
2023/11/01 01:31:44;;;;;;;2.90;1.90;;;;;;;8.82;96.82;95943.09;108837;1271;22532;-78
2023/11/01 01:34:14;;;;;;;2.90;1.60;;;;;;;8.79;96.89;95944.92;108740;1264;22549;-78
2023/11/01 01:36:45;;;;;;;2.00;1.70;;;;;;;8.76;97.06;95946.49;108818;1271;22525;-78
2023/11/01 01:39:16;;;;;;;2.40;1.80;;;;;;;8.76;97.17;95949.08;108716;1271;25522;-78
2023/11/01 01:41:47;;;;;;;3.00;1.90;;;;;;;8.76;97.26;95950.98;108779;1271;22532;-78
2023/11/01 01:44:18;;;;;;;2.00;1.80;;;;;;;8.74;97.16;95951.07;108759;1271;23191;-78
2023/11/01 01:46:49;;;;;;;2.50;1.50;;;;;;;8.73;97.32;95951.71;108766;1266;22555;-78
2023/11/01 01:49:20;;;;;;;1.70;1.60;;;;;;;8.73;97.37;95952.35;108686;1264;22530;-78
2023/11/01 01:51:51;;;;;;;2.90;1.90;;;;;;;8.74;97.40;95953.39;108768;1267;22543;-78
2023/11/01 01:54:23;;;;;;;2.30;1.80;;;;;;;8.75;97.38;95952.80;108694;1271;22524;-77
2023/11/01 01:56:54;;;;;;;2.20;1.30;;;;;;;8.76;97.36;95956.55;108768;1271;22544;-78
2023/11/01 01:59:26;;;;;;;2.00;1.40;;;;;;;8.76;97.35;95962.14;108768;1267;22530;-78
2023/11/01 02:02:00;;;;;;;1.90;1.60;;;;;;;8.75;97.35;95961.47;108792;1264;22510;-78
2023/11/01 02:04:30;;;;;;;3.20;1.80;;;;;;;8.74;97.38;95962.59;108793;1264;22529;-77
2023/11/01 02:07:01;;;;;;;2.20;1.80;;;;;;;8.70;97.36;95963.89;108742;1265;22522;-78
2023/11/01 02:09:32;;;;;;;3.30;1.60;;;;;;;8.70;97.53;95964.89;108794;1264;22610;-78
2023/11/01 02:12:04;;;;;;;3.50;2.00;;;;;;;8.69;97.52;95969.29;108820;1264;22529;-78
2023/11/01 02:14:35;;;;;;;2.80;2.00;;;;;;;8.66;97.43;95972.13;108791;1271;25294;-78
2023/11/01 02:17:06;;;;;;;3.40;1.70;;;;;;;8.63;97.52;95975.23;108749;1271;25242;-78
2023/11/01 02:19:37;;;;;;;2.00;1.70;;;;;;;8.63;97.53;95977.40;108750;1271;22534;-78
2023/11/01 02:22:09;;;;;;;2.00;1.80;;;;;;;8.63;97.60;95979.98;108754;1264;22512;-78
2023/11/01 02:24:40;;;;;;;2.10;1.90;;;;;;;8.66;97.89;95977.69;108725;1271;25227;-78
2023/11/01 02:27:11;;;;;;;2.00;1.80;;;;;;;8.66;97.73;95977.88;108783;1269;22543;-78
2023/11/01 02:29:42;;;;;;;2.20;1.60;;;;;;;8.64;97.68;95977.08;108766;1271;22545;-78
2023/11/01 02:32:13;;;;;;;2.80;1.90;;;;;;;8.60;97.64;95972.41;108792;1271;25381;-78
2023/11/01 02:34:44;;;;;;;2.10;1.90;;;;;;;8.57;97.47;95973.33;108750;1271;25494;-78
2023/11/01 02:37:14;;;;;;;2.00;1.70;;;;;;;8.55;97.39;95978.53;108758;1271;22573;-78
2023/11/01 02:39:45;;;;;;;2.40;1.90;;;;;;;8.51;97.43;95981.17;108776;1270;22956;-78
2023/11/01 02:42:16;;;;;;;3.30;1.60;;;;;;;8.48;97.44;95981.84;108723;1264;22520;-78
2023/11/01 02:44:47;;;;;;;3.40;1.70;;;;;;;8.47;97.40;95988.30;108773;1264;24224;-77
2023/11/01 02:47:18;;;;;;;2.50;2.10;;;;;;;8.45;97.42;95988.22;108810;1271;22539;-78
2023/11/01 02:49:48;;;;;;;1.70;1.60;;;;;;;8.44;97.58;95993.00;108764;1271;26478;-78
2023/11/01 02:52:19;;;;;;;5.00;1.80;;;;;;;8.44;97.61;95990.63;108795;1271;25405;-78
2023/11/01 02:54:50;;;;;;;2.80;1.60;;;;;;;8.44;97.68;95990.33;108795;1264;22538;-78
2023/11/01 02:57:21;;;;;;;1.50;1.30;;;;;;;8.44;97.76;95989.36;108762;1264;22540;-78
2023/11/01 02:59:51;;;;;;;2.70;1.70;;;;;;;8.47;97.70;95985.23;108753;1269;22525;-78
2023/11/01 03:02:22;;;;;;;2.80;1.70;;;;;;;8.48;97.79;95988.97;108756;1264;24210;-78
2023/11/01 03:04:53;;;;;;;3.10;2.00;;;;;;;8.50;97.83;95992.11;108727;1268;22546;-78
2023/11/01 03:07:24;;;;;;;4.30;1.90;;;;;;;8.52;97.68;95992.67;108779;1264;22540;-78
2023/11/01 03:09:55;;;;;;;2.70;1.50;;;;;;;8.52;97.61;95992.40;108775;1264;22607;-78
2023/11/01 03:12:26;;;;;;;2.00;1.50;;;;;;;8.50;97.52;95997.08;108761;1271;22535;-78
2023/11/01 03:14:57;;;;;;;3.40;1.90;;;;;;;8.48;97.49;95996.79;108803;1252;22521;-78
2023/11/01 03:17:28;;;;;;;2.20;2.00;;;;;;;8.47;97.41;96001.45;108763;1271;22531;-78
2023/11/01 03:19:59;;;;;;;2.10;1.90;;;;;;;8.46;97.50;96006.43;108715;1264;22548;-78
2023/11/01 03:22:30;;;;;;;2.60;2.10;;;;;;;8.46;97.50;96007.47;108840;1271;24492;-78
2023/11/01 03:25:01;;;;;;;1.80;1.70;;;;;;;8.47;97.54;96008.84;108792;1271;25290;-78
2023/11/01 03:27:32;;;;;;;1.60;1.50;;;;;;;8.49;97.44;96009.55;108787;1271;24363;-78
2023/11/01 03:30:03;;;;;;;1.80;1.50;;;;;;;8.52;97.50;96012.27;108829;1264;22538;-78
2023/11/01 03:32:34;;;;;;;2.80;1.70;;;;;;;8.52;97.44;96011.33;108762;1268;23303;-78
2023/11/01 03:35:06;;;;;;;4.40;2.20;;;;;;;8.54;97.50;96011.61;108790;1271;23816;-78
2023/11/01 03:37:37;;;;;;;4.40;2.00;;;;;;;8.57;97.53;96014.64;108818;1271;25339;-78
2023/11/01 03:40:09;;;;;;;3.10;1.70;;;;;;;8.56;97.36;96016.13;108783;1265;22690;-78
2023/11/01 03:42:40;;;;;;;1.80;1.60;;;;;;;8.54;97.25;96020.06;108830;1271;22567;-78
2023/11/01 03:45:13;;;;;;;1.60;1.50;;;;;;;8.51;97.28;96023.27;108731;1271;25668;-78
2023/11/01 03:47:44;;;;;;;1.90;1.30;;;;;;;8.52;97.41;96021.20;108761;1271;22530;-78
2023/11/01 03:50:15;;;;;;;3.10;1.60;;;;;;;8.56;97.24;96013.86;108730;1271;23186;-78
2023/11/01 03:52:46;;;;;;;2.50;1.70;;;;;;;8.59;97.24;96019.29;108767;1271;24305;-78
2023/11/01 03:55:17;;;;;;;2.30;2.10;;;;;;;8.64;97.10;96017.45;108794;1271;23438;-78
2023/11/01 03:57:48;;;;;;;1.60;1.50;;;;;;;8.67;97.03;96013.48;108776;1271;22522;-78
2023/11/01 04:00:21;;;;;;;3.30;2.00;;;;;;;8.71;96.94;96017.24;108758;1271;22536;-78
2023/11/01 04:02:52;;;;;;;1.70;1.60;;;;;;;8.73;96.82;96020.06;108801;1264;22539;-78
2023/11/01 04:05:23;;;;;;;2.10;1.50;;;;;;;8.73;96.68;96020.48;108789;1268;25471;-78
2023/11/01 04:07:54;;;;;;;2.70;2.00;;;;;;;8.74;96.61;96019.93;108705;1264;22528;-78
2023/11/01 04:10:26;;;;;;;2.10;1.90;;;;;;;8.75;96.42;96017.86;108814;1271;22524;-78
2023/11/01 04:12:57;;;;;;;1.60;1.50;;;;;;;8.75;96.40;96018.17;108779;1265;22520;-78
2023/11/01 04:15:28;;;;;;;1.70;1.60;;;;;;;8.76;96.40;96022.09;108750;1266;22527;-78
2023/11/01 04:17:59;;;;;;;1.80;1.70;;;;;;;8.77;96.31;96025.71;108805;1271;22535;-78
2023/11/01 04:20:30;;;;;;;2.10;1.50;;;;;;;8.77;96.27;96026.56;108827;1271;22542;-78
2023/11/01 04:23:02;;;;;;;1.70;1.60;;;;;;;8.78;96.05;96031.48;108820;1271;22548;-78
2023/11/01 04:25:35;;;;;;;1.60;1.50;;;;;;;8.78;95.99;96028.83;108776;1271;22548;-78
2023/11/01 04:28:06;;;;;;;1.70;1.60;;;;;;;8.78;96.06;96030.67;108736;1271;22522;-78
2023/11/01 04:30:39;;;;;;;4.70;1.60;;;;;;;8.77;95.92;96027.98;108809;1271;24339;-78
2023/11/01 04:33:11;;;;;;;2.50;1.70;;;;;;;8.77;95.94;96032.38;108802;1264;22531;-78
2023/11/01 04:35:43;;;;;;;2.60;1.60;;;;;;;8.75;95.80;96034.78;108941;1265;22517;-78
2023/11/01 04:38:14;;;;;;;2.40;2.00;;;;;;;8.74;95.76;96032.73;108734;1271;22618;-78
2023/11/01 04:40:45;;;;;;;2.00;1.40;;;;;;;8.72;95.69;96031.05;108767;1264;22531;-78
2023/11/01 04:43:17;;;;;;;1.60;1.50;;;;;;;8.72;95.60;96032.58;108798;1265;25323;-78
2023/11/01 04:45:49;;;;;;;1.40;1.30;;;;;;;8.70;95.68;96036.13;108789;1271;22684;-78
2023/11/01 04:48:20;;;;;;;1.60;1.50;;;;;;;8.69;95.48;96036.73;108835;1271;22524;-78
2023/11/01 04:50:53;;;;;;;2.00;1.40;;;;;;;8.69;95.51;96044.44;108811;1264;22522;-78
2023/11/01 04:53:25;;;;;;;1.60;1.50;;;;;;;8.70;95.54;96043.11;108802;1271;25334;-78
2023/11/01 04:55:56;;;;;;;1.90;1.40;;;;;;;8.71;95.61;96046.11;108755;1271;22514;-78
2023/11/01 04:58:28;;;;;;;1.50;1.40;;;;;;;8.73;95.57;96040.36;108742;1271;22568;-78
2023/11/01 05:00:59;;;;;;;1.60;1.30;;;;;;;8.74;95.48;96039.71;108798;1271;22518;-78
2023/11/01 05:03:30;;;;;;;1.60;1.50;;;;;;;8.74;95.38;96046.42;108879;1268;25394;-78
2023/11/01 05:06:01;;;;;;;2.00;1.40;;;;;;;8.74;95.31;96049.11;108732;1265;22539;-78
2023/11/01 05:08:32;;;;;;;1.20;1.10;;;;;;;8.75;95.33;96060.20;108783;1265;22524;-78
2023/11/01 05:11:04;;;;;;;1.60;1.50;;;;;;;8.74;95.22;96054.13;108769;1271;22700;-78
2023/11/01 05:13:36;;;;;;;1.20;1.10;;;;;;;8.74;95.17;96056.67;108745;1271;22521;-78
2023/11/01 05:16:08;;;;;;;1.60;1.50;;;;;;;8.74;95.20;96052.39;108778;1265;25325;-78
2023/11/01 05:18:39;;;;;;;1.30;1.20;;;;;;;8.74;95.26;96057.30;108849;1271;22536;-78
2023/11/01 05:21:10;;;;;;;1.40;1.30;;;;;;;8.75;95.18;96060.14;108808;1271;25474;-78
2023/11/01 05:23:41;;;;;;;1.60;1.40;;;;;;;8.75;95.24;96065.53;108761;1271;22540;-78
2023/11/01 05:26:17;;;;;;;1.60;1.50;;;;;;;8.74;95.25;96066.98;108812;1271;24520;-78
2023/11/01 05:28:48;;;;;;;2.10;1.70;;;;;;;8.72;95.13;96071.37;108737;1266;22558;-78
2023/11/01 05:31:19;;;;;;;1.60;1.50;;;;;;;8.70;95.07;96076.61;108806;1271;22518;-78
2023/11/01 05:33:50;;;;;;;2.70;1.40;;;;;;;8.69;95.20;96073.62;108775;1265;22517;-78
2023/11/01 05:36:22;;;;;;;1.90;1.40;;;;;;;8.68;95.25;96079.55;108808;1271;22775;-78
2023/11/01 05:38:53;;;;;;;2.10;1.30;;;;;;;8.68;95.24;96078.02;108773;1271;24752;-78
2023/11/01 05:41:24;;;;;;;1.30;1.20;;;;;;;8.65;95.32;96076.25;108830;1271;25240;-78
2023/11/01 05:43:55;;;;;;;1.80;1.50;;;;;;;8.61;95.35;96079.73;108794;1271;22622;-78
2023/11/01 05:46:26;;;;;;;3.20;1.40;;;;;;;8.58;95.40;96083.27;108754;1264;22558;-78
2023/11/01 05:48:57;;;;;;;1.10;1.00;;;;;;;8.57;95.30;96089.89;108780;1271;22528;-78
2023/11/01 05:51:28;;;;;;;1.60;1.30;;;;;;;8.56;95.41;96091.59;108757;1271;22551;-78
2023/11/01 05:54:00;;;;;;;1.50;1.30;;;;;;;8.60;95.57;96092.98;108744;1265;23713;-78
2023/11/01 05:56:31;;;;;;;1.60;1.50;;;;;;;8.64;95.38;96096.82;108776;1271;24219;-78
2023/11/01 05:59:03;;;;;;;1.70;1.10;;;;;;;8.67;95.37;96099.79;108749;1271;22537;-78
2023/11/01 06:01:35;;;;;;;3.00;1.40;;;;;;;8.70;95.33;96099.39;108810;1271;22520;-78
2023/11/01 06:04:06;;;;;;;1.70;1.50;;;;;;;8.74;95.25;96101.16;108803;1265;22549;-78
2023/11/01 06:06:37;;;;;;;1.60;1.40;;;;;;;8.82;95.15;96108.81;108706;1271;22553;-78
2023/11/01 06:09:08;;;;;;;1.50;1.30;;;;;;;8.98;95.34;96112.46;108783;1271;22517;-78
2023/11/01 06:11:39;;;;;;;1.80;1.50;;;;;;;9.38;95.30;96114.15;108700;1271;22545;-78
2023/11/01 06:14:12;;;;;;;2.30;1.60;;;;;;;9.62;94.49;96113.87;108758;1268;22543;-78
2023/11/01 06:16:43;;;;;;;1.60;1.50;;;;;;;9.55;94.03;96113.27;108771;1265;22517;-78
2023/11/01 06:19:15;;;;;;;1.30;1.20;;;;;;;9.49;93.99;96123.06;108648;1260;189448;-78
2023/11/01 06:21:46;;;;;;;2.80;1.40;;;;;;;9.45;93.93;96128.94;108782;1264;23713;-78
2023/11/01 06:24:17;;;;;;;1.60;1.20;;;;;;;9.43;94.09;96127.73;108815;1271;22537;-78
2023/11/01 06:26:48;;;;;;;1.60;1.20;;;;;;;9.48;93.89;96136.48;108724;1265;22571;-78
2023/11/01 06:29:19;;;;;;;1.70;1.40;;;;;;;9.49;93.85;96138.68;108721;1271;22649;-78
2023/11/01 06:31:51;;;;;;;2.40;1.50;;;;;;;9.52;93.70;96141.23;108771;1271;24903;-78
2023/11/01 06:34:22;;;;;;;2.00;1.40;;;;;;;9.58;93.67;96148.22;108712;1268;22627;-78
2023/11/01 06:36:53;;;;;;;3.40;2.00;;;;;;;9.65;93.59;96149.18;108771;1265;22521;-78
2023/11/01 06:39:24;;;;;;;3.30;1.80;;;;;;;9.63;93.27;96150.37;108780;1271;22574;-78
2023/11/01 06:41:55;;;;;;;2.30;1.60;;;;;;;9.50;93.24;96153.86;108778;1271;22520;-78
2023/11/01 06:44:26;;;;;;;2.70;1.80;;;;;;;9.39;93.28;96152.55;108702;1268;22598;-78
2023/11/01 06:46:57;;;;;;;1.90;1.70;;;;;;;9.36;93.56;96151.52;108802;1271;22520;-79
2023/11/01 06:49:28;;;;;;;1.30;1.10;;;;;;;9.30;93.53;96159.84;108716;1264;23036;-78
2023/11/01 06:51:59;;;;;;;2.80;2.10;;;;;;;9.22;93.61;96159.02;108756;1266;22982;-78
2023/11/01 06:54:30;;;;;;;1.90;1.60;;;;;;;9.18;93.80;96157.22;108737;1265;22597;-78
2023/11/01 06:57:01;;;;;;;2.40;2.20;;;;;;;9.14;93.81;96165.66;108790;1265;26478;-78
2023/11/01 06:59:32;;;;;;;2.20;2.00;;;;;;;9.10;94.04;96164.95;108812;1271;22832;-78
2023/11/01 07:02:02;;;;;;;2.30;2.00;;;;;;;9.08;94.10;96168.05;108783;1271;22518;-79
2023/11/01 07:04:34;;;;;;;2.40;2.00;;;;;;;9.04;94.16;96173.39;108742;1265;22521;-78
2023/11/01 07:07:05;;;;;;;2.20;2.00;;;;;;;8.97;94.25;96174.16;108700;1271;24190;-79
2023/11/01 07:09:36;;;;;;;3.40;2.30;;;;;;;8.94;94.48;96176.05;108757;1271;24406;-78
2023/11/01 07:12:08;;;;;;;2.60;2.40;;;;;;;8.94;94.71;96173.04;108784;1270;24461;-78
2023/11/01 07:14:40;;;;;;;2.40;2.10;;;;;;;8.99;94.81;96176.69;108743;1271;22511;-78
2023/11/01 07:17:10;;;;;;;2.70;1.90;;;;;;;9.02;94.79;96177.68;108753;1271;25412;-78
2023/11/01 07:19:42;;;;;;;2.70;2.20;;;;;;;9.04;94.93;96176.29;108781;1271;25330;-78
2023/11/01 07:22:12;;;;;;;2.50;2.20;;;;;;;9.08;94.89;96171.02;108716;1271;22531;-78
2023/11/01 07:24:43;;;;;;;2.90;2.00;;;;;;;9.13;94.91;96172.48;108766;1271;23080;-78
2023/11/01 07:27:14;;;;;;;3.90;2.30;;;;;;;9.21;95.02;96175.34;108763;1271;22529;-79
2023/11/01 07:29:46;;;;;;;2.40;2.00;;;;;;;9.46;95.14;96172.70;108786;1271;24213;-78
2023/11/01 07:32:17;;;;;;;3.20;2.30;;;;;;;10.16;95.39;96166.33;108737;1271;24239;-79
2023/11/01 07:34:48;;;;;;;3.70;2.00;;;;;;;11.23;94.85;96162.49;108735;1265;23838;-78
2023/11/01 07:37:19;;;;;;;2.10;1.70;;;;;;;11.63;92.93;96167.64;108781;1271;22513;-79
2023/11/01 07:39:50;;;;;;;5.40;1.90;;;;;;;11.90;92.16;96161.73;108803;1271;22710;-78
2023/11/01 07:42:21;;;;;;;2.10;1.50;;;;;;;11.86;91.43;96161.39;108804;1267;22537;-78
2023/11/01 07:44:52;;;;;;;1.90;1.50;;;;;;;12.32;91.17;96164.83;108732;1265;22521;-78
2023/11/01 07:47:24;;;;;;;1.40;1.10;;;;;;;12.81;89.66;96170.56;108742;1271;25365;-78
2023/11/01 07:49:55;;;;;;;1.40;1.20;;;;;;;13.02;88.06;96173.52;108792;1265;22600;-78
2023/11/01 07:52:26;;;;;;;2.90;1.80;;;;;;;13.60;86.46;96175.77;108751;1264;23675;-78
2023/11/01 07:54:57;;;;;;;1.90;1.50;;;;;;;14.30;85.28;96177.30;108735;1265;27514;-78
2023/11/01 07:57:28;;;;;;;2.80;1.90;;;;;;;15.10;84.31;96176.86;108761;1271;22515;-79
2023/11/01 07:59:59;;;;;;;2.30;1.80;;;;;;;15.54;82.48;96174.64;108754;1270;23465;-79
2023/11/01 08:02:30;;;;;;;3.10;1.60;;;;;;;15.51;80.19;96180.15;108757;1271;22533;-78
2023/11/01 08:05:01;;;;;;;1.10;1.00;;;;;;;15.88;79.77;96178.41;108746;1271;22529;-78
2023/11/01 08:07:33;;;;;;;2.00;1.60;;;;;;;16.40;79.06;96181.13;108716;1265;22544;-78
2023/11/01 08:10:04;;;;;;;2.20;1.50;;;;;;;16.26;76.57;96183.30;108777;1271;24353;-78
2023/11/01 08:12:35;;;;;;;2.80;2.00;;;;;;;15.42;75.70;96183.48;108760;1271;22596;-78
2023/11/01 08:15:08;;;;;;;2.10;1.50;;;;;;;15.06;75.92;96186.45;108770;1268;22514;-78
2023/11/01 08:17:39;;;;;;;2.40;1.80;;;;;;;14.89;75.78;96190.90;108824;1271;24495;-78
2023/11/01 08:20:12;;;;;;;2.80;1.50;;;;;;;15.23;76.00;96195.88;108772;1271;22525;-78
2023/11/01 08:22:43;;;;;;;2.90;1.30;;;;;;;15.44;75.10;96194.69;108810;1265;22555;-78
2023/11/01 08:25:14;;;;;;;1.70;1.40;;;;;;;15.29;74.21;96191.98;108733;1271;22522;-78
2023/11/01 08:27:46;;;;;;;3.30;1.60;;;;;;;15.36;74.43;96197.52;108760;1271;22518;-78
2023/11/01 08:30:18;;;;;;;1.40;1.20;;;;;;;15.07;73.52;96196.10;108757;1269;22647;-78
2023/11/01 08:32:48;;;;;;;2.00;1.30;;;;;;;14.75;73.26;96197.41;108746;1271;25263;-78
2023/11/01 08:35:20;;;;;;;3.50;1.50;;;;;;;14.56;72.99;96201.74;108744;1271;22557;-78
2023/11/01 08:37:51;;;;;;;2.30;1.20;;;;;;;14.29;72.58;96201.01;108755;1271;22538;-78
2023/11/01 08:40:22;;;;;;;1.50;1.40;;;;;;;13.73;71.96;96201.25;108845;1266;24285;-78
2023/11/01 08:42:54;;;;;;;2.20;1.30;;;;;;;13.35;72.41;96206.23;108758;1266;22524;-78
2023/11/01 08:45:25;;;;;;;1.00;0.90;;;;;;;13.13;72.50;96208.31;108743;1271;22542;-78
2023/11/01 08:47:56;;;;;;;1.40;1.20;;;;;;;12.86;72.42;96210.40;108716;1271;24242;-78
2023/11/01 08:50:27;;;;;;;2.10;1.10;;;;;;;12.64;72.27;96213.50;108732;1271;23825;-78
2023/11/01 08:52:58;;;;;;;2.60;1.50;;;;;;;12.48;72.09;96218.33;108773;1265;22542;-78
2023/11/01 08:55:29;;;;;;;2.50;1.30;;;;;;;12.30;71.51;96221.41;108762;1271;22519;-78
2023/11/01 08:58:00;;;;;;;1.20;0.80;;;;;;;12.10;71.70;96220.77;108736;1268;22507;-78
2023/11/01 09:00:31;;;;;;;1.80;1.10;;;;;;;11.86;71.37;96223.69;108784;1265;22520;-78
2023/11/01 09:03:02;;;;;;;1.10;0.70;;;;;;;11.63;71.88;96226.48;108764;1271;22542;-79
2023/11/01 09:05:34;;;;;;;1.20;0.70;;;;;;;11.56;71.73;96230.19;108751;1271;22530;-78
2023/11/01 09:08:05;;;;;;;1.60;0.90;;;;;;;11.43;71.78;96223.52;108727;1252;22541;-79
2023/11/01 09:10:35;;;;;;;0.80;0.70;;;;;;;11.48;72.92;96226.83;108704;1271;22524;-79
2023/11/01 09:13:07;;;;;;;1.40;1.10;;;;;;;11.57;72.77;96228.30;108656;1271;26242;-79
2023/11/01 09:15:38;;;;;;;1.70;1.20;;;;;;;11.57;71.64;96230.42;108718;1268;22605;-78
2023/11/01 09:18:09;;;;;;;1.10;0.90;;;;;;;11.62;72.07;96230.23;108702;1271;22544;-79
2023/11/01 09:20:40;;;;;;;2.80;1.00;;;;;;;11.79;72.80;96229.98;108654;1271;24215;-79
2023/11/01 09:23:11;;;;;;;0.90;0.80;;;;;;;11.85;71.60;96225.36;108746;1268;22535;-79
2023/11/01 09:25:42;;;;;;;1.80;0.70;;;;;;;11.94;70.97;96226.10;108721;1271;22507;-79
2023/11/01 09:28:13;;;;;;;2.10;0.80;;;;;;;12.02;69.90;96225.94;108757;1268;22570;-79
2023/11/01 09:30:44;;;;;;;1.40;0.70;;;;;;;12.13;70.77;96230.55;108788;1265;22520;-79
2023/11/01 09:33:15;;;;;;;2.40;0.80;;;;;;;12.23;69.23;96222.85;108773;1267;22776;-79
2023/11/01 09:35:46;;;;;;;2.30;0.90;;;;;;;12.14;69.46;96222.98;108710;1271;22519;-79
2023/11/01 09:38:17;;;;;;;0.80;0.50;;;;;;;12.30;70.07;96222.81;108750;1271;22517;-79
2023/11/01 09:40:48;;;;;;;1.90;0.80;;;;;;;12.24;68.93;96220.86;108713;1271;22651;-79
2023/11/01 09:43:22;;;;;;;1.30;0.60;;;;;;;12.09;68.68;96215.96;108766;1270;22544;-79
2023/11/01 09:45:53;;;;;;;2.60;1.10;;;;;;;12.16;68.69;96210.71;108712;1271;24240;-79
2023/11/01 09:48:24;;;;;;;2.00;0.70;;;;;;;12.18;68.50;96214.35;108731;1271;22547;-79
2023/11/01 09:50:58;;;;;;;2.80;1.10;;;;;;;12.03;68.56;96217.35;108744;1271;24377;-79
2023/11/01 09:53:29;;;;;;;2.20;0.90;;;;;;;11.87;68.96;96212.69;108748;1271;22533;-79
2023/11/01 09:56:00;;;;;;;2.50;1.00;;;;;;;11.88;69.34;96213.30;108694;1271;27501;-79
2023/11/01 09:58:33;;;;;;;1.40;0.60;;;;;;;11.80;69.52;96214.34;108747;1268;22566;-79
2023/11/01 10:01:04;;;;;;;2.00;0.90;;;;;;;11.85;69.94;96209.75;108746;1265;22563;-79
2023/11/01 10:03:35;;;;;;;2.50;1.00;;;;;;;12.03;70.14;96207.73;108743;1271;24214;-79
2023/11/01 10:06:08;;;;;;;2.00;0.80;;;;;;;11.96;69.19;96204.59;108729;1265;22995;-79
2023/11/01 10:08:39;;;;;;;3.30;0.90;;;;;;;12.02;69.71;96200.48;108749;1271;22657;-79
2023/11/01 10:11:10;;;;;;;3.10;0.90;;;;;;;12.34;69.79;96202.47;108761;1266;22971;-79
2023/11/01 10:13:42;;;;;;;1.20;0.70;;;;;;;12.58;69.33;96201.92;108735;1266;24236;-79
2023/11/01 10:16:13;;;;;;;1.30;0.60;;;;;;;12.76;68.55;96197.44;108719;1271;25359;-79
2023/11/01 10:18:45;;;;;;;1.60;1.00;;;;;;;12.77;66.89;96199.70;108707;1271;22534;-79
2023/11/01 10:21:16;;;;;;;0.80;0.50;;;;;;;12.59;65.71;96197.46;108737;1270;22606;-79
2023/11/01 10:23:48;;;;;;;1.90;1.00;;;;;;;12.43;66.39;96199.62;108735;1268;22516;-79
2023/11/01 10:26:19;;;;;;;2.30;0.90;;;;;;;12.46;66.86;96197.29;108750;1271;22624;-78
2023/11/01 10:28:50;;;;;;;1.30;0.50;;;;;;;12.38;66.25;96199.13;108699;1271;22545;-78
2023/11/01 10:31:21;;;;;;;1.80;0.60;;;;;;;12.25;65.29;96193.31;108760;1268;22532;-79
2023/11/01 10:33:53;;;;;;;2.10;0.60;;;;;;;12.12;65.55;96195.98;108752;1269;25282;-78
2023/11/01 10:36:24;;;;;;;0.80;0.60;;;;;;;12.08;65.84;96193.55;108736;1271;24276;-79
2023/11/01 10:38:56;;;;;;;1.40;0.80;;;;;;;12.02;65.92;96193.15;108737;1268;22529;-79
2023/11/01 10:41:29;;;;;;;2.30;0.80;;;;;;;12.10;66.52;96193.95;108752;1271;22553;-79
2023/11/01 10:44:01;;;;;;;0.80;0.60;;;;;;;12.30;66.77;96196.70;108687;1262;22563;-79
2023/11/01 10:46:33;;;;;;;0.90;0.70;;;;;;;12.48;67.15;96195.41;108706;1271;24480;-79
2023/11/01 10:49:06;;;;;;;1.40;0.50;;;;;;;12.71;67.14;96191.48;108763;1271;22514;-79
2023/11/01 10:51:40;;;;;;;1.10;0.70;;;;;;;12.89;67.31;96193.87;108747;1271;22542;-79
2023/11/01 10:54:12;;;;;;;1.80;0.90;;;;;;;13.04;67.09;96196.13;108753;1265;24215;-79
2023/11/01 10:56:44;;;;;;;1.00;0.80;;;;;;;13.13;67.23;96196.45;108714;1268;22627;-79
2023/11/01 10:59:31;;;;;;;1.30;0.50;;;;;;;13.01;66.36;96187.54;108727;1264;22523;-79
2023/11/01 11:02:16;;;;;;;0.80;0.60;;;;;;;12.79;65.98;96187.26;108793;1271;22750;-79
2023/11/01 11:04:53;;;;;;;2.40;1.10;;;;;;;12.67;66.41;96186.14;108726;1271;22540;-78
2023/11/01 11:07:45;;;;;;;2.30;0.90;;;;;;;12.62;66.86;96191.48;108673;1265;22527;-79
2023/11/01 11:10:28;;;;;;;3.40;0.90;;;;;;;12.59;66.84;96190.92;108773;1261;24204;-79
2023/11/01 11:13:29;;;;;;;1.40;0.70;;;;;;;12.62;67.52;96193.72;108771;1271;22521;-79
2023/11/01 11:16:01;;;;;;;2.70;0.90;;;;;;;12.75;67.55;96195.70;108756;1266;22547;-79
2023/11/01 11:18:59;;;;;;;1.00;0.70;;;;;;;12.87;67.74;96194.73;108735;1265;22528;-79
2023/11/01 11:22:03;;;;;;;1.50;0.90;;;;;;;12.98;67.53;96196.52;108737;1271;22683;-79
2023/11/01 11:24:57;;;;;;;2.40;0.80;;;;;;;13.08;67.87;96195.60;108706;1268;22521;-78
2023/11/01 11:27:53;;;;;;;1.30;0.90;;;;;;;13.30;67.76;96194.82;108645;1271;22521;-79
2023/11/01 11:31:03;;;;;;;2.40;1.30;;;;;;;13.36;67.66;96188.32;108737;1271;22517;-79
2023/11/01 11:33:36;;;;;;;1.50;0.90;;;;;;;13.45;67.66;96183.20;108304;1272;22531;-79
2023/11/01 11:36:16;;;;;;;1.80;0.70;;;;;;;13.52;67.45;96184.33;108310;1278;22549;-79
2023/11/01 11:39:05;;;;;;;2.60;0.90;;;;;;;13.57;67.36;96188.27;108594;1271;25434;-79
2023/11/01 11:41:47;;;;;;;1.90;1.00;;;;;;;13.41;67.26;96186.14;108728;1271;22604;-78
2023/11/01 11:44:19;;;;;;;3.30;0.80;;;;;;;13.42;67.94;96183.38;108806;1268;22628;-79
2023/11/01 11:46:53;;;;;;;0.80;0.70;;;;;;;13.63;68.19;96184.54;108736;1266;24280;-78
2023/11/01 11:49:27;;;;;;;1.60;0.70;;;;;;;13.86;67.93;96182.58;108732;1269;22517;-78
2023/11/01 11:51:59;;;;;;;1.10;0.80;;;;;;;13.98;66.98;96178.98;108793;1265;22539;-79